createdAt,value
2022-08-02T00:01:03.502Z,4.60
2022-08-02T00:03:32.283Z,5.20
2022-08-02T00:06:01.919Z,5.60
2022-08-02T00:08:31.619Z,7.78
2022-08-02T00:10:59.777Z,8.55
2022-08-02T00:13:28.405Z,4.82
2022-08-02T00:15:56.726Z,5.25
2022-08-02T00:18:24.942Z,6.53
2022-08-02T00:20:53.074Z,7.07
2022-08-02T00:23:21.391Z,7.75
2022-08-02T00:25:55.269Z,7.00
2022-08-02T00:28:27.582Z,8.77
2022-08-02T00:30:56.837Z,6.88
2022-08-02T00:34:27.735Z,6.85
2022-08-02T00:36:13.420Z,8.05
2022-08-02T00:38:41.683Z,8.43
2022-08-02T00:41:17.616Z,8.85
2022-08-02T00:43:46.127Z,8.70
2022-08-02T00:46:15.220Z,6.57
2022-08-02T00:48:43.981Z,7.45
2022-08-02T00:51:12.636Z,6.20
2022-08-02T00:53:41.467Z,6.30
2022-08-02T00:56:09.774Z,7.22
2022-08-02T00:58:39.460Z,6.25
2022-08-02T01:01:07.733Z,5.95
2022-08-02T01:03:35.922Z,5.45
2022-08-02T01:06:11.648Z,5.00
2022-08-02T01:08:40.454Z,9.52
2022-08-02T01:11:08.716Z,7.05
2022-08-02T01:13:38.472Z,8.23
2022-08-02T01:16:16.026Z,9.73
2022-08-02T01:18:52.406Z,8.38
2022-08-02T01:21:55.998Z,10.63
2022-08-02T01:25:12.019Z,8.77
2022-08-02T01:27:55.921Z,8.75
2022-08-02T01:30:26.748Z,9.95
2022-08-02T01:33:01.183Z,7.50
2022-08-02T01:35:50.543Z,6.70
2022-08-02T01:38:32.620Z,9.25
2022-08-02T01:41:03.962Z,7.28
2022-08-02T01:43:35.534Z,8.63
2022-08-02T01:46:06.166Z,8.38
2022-08-02T01:48:36.334Z,8.27
2022-08-02T01:51:07.764Z,8.52
2022-08-02T01:53:39.347Z,7.72
2022-08-02T01:56:10.495Z,6.55
2022-08-02T01:58:41.404Z,8.85
2022-08-02T02:01:14.449Z,5.65
2022-08-02T02:03:48.449Z,7.18
2022-08-02T02:06:18.218Z,9.48
2022-08-02T02:08:46.471Z,7.65
2022-08-02T02:12:06.355Z,9.27
2022-08-02T02:14:05.128Z,6.72
2022-08-02T02:16:35.967Z,14.07
2022-08-02T02:19:05.351Z,5.60
2022-08-02T02:21:34.433Z,8.77
2022-08-02T02:24:04.024Z,6.93
2022-08-02T02:26:37.538Z,7.15
2022-08-02T02:29:12.769Z,11.48
2022-08-02T02:31:47.329Z,12.95
2022-08-02T02:34:24.361Z,9.05
2022-08-02T02:39:25.960Z,10.32
2022-08-02T02:41:57.861Z,11.07
2022-08-02T02:44:27.495Z,10.35
2022-08-02T02:46:58.117Z,11.45
2022-08-02T02:49:28.708Z,11.07
2022-08-02T02:51:58.945Z,9.57
2022-08-02T02:54:34.680Z,6.85
2022-08-02T02:57:06.552Z,9.73
2022-08-02T02:59:42.927Z,9.35
2022-08-02T03:02:20.854Z,10.40
2022-08-02T03:04:56.226Z,13.05
2022-08-02T03:07:26.795Z,6.63
2022-08-02T03:09:55.499Z,7.25
2022-08-02T03:12:31.562Z,6.28
2022-08-02T03:15:02.322Z,8.73
2022-08-02T03:17:42.191Z,8.43
2022-08-02T03:20:14.778Z,12.02
2022-08-02T03:22:43.637Z,6.82
2022-08-02T03:25:12.965Z,8.57
2022-08-02T03:27:41.872Z,8.20
2022-08-02T03:30:13.077Z,8.82
2022-08-02T03:32:46.850Z,11.80
2022-08-02T03:35:23.448Z,10.70
2022-08-02T03:37:56.923Z,9.98
2022-08-02T03:40:26.562Z,8.20
2022-08-02T03:42:56.084Z,10.80
2022-08-02T03:45:26.302Z,7.63
2022-08-02T03:47:58.724Z,10.85
2022-08-02T03:50:29.940Z,8.85
2022-08-02T03:52:58.931Z,11.75
2022-08-02T03:55:27.393Z,8.35
2022-08-02T03:57:55.692Z,13.00
2022-08-02T04:00:24.802Z,11.13
2022-08-02T04:02:54.065Z,7.57
2022-08-02T04:05:23.804Z,9.20
2022-08-02T04:08:33.919Z,8.25
2022-08-02T04:10:58.647Z,8.88
2022-08-02T04:13:34.464Z,8.30
2022-08-02T04:16:11.529Z,10.25
2022-08-02T04:18:51.063Z,9.25
2022-08-02T04:21:25.624Z,8.27
2022-08-02T04:23:55.387Z,8.98
2022-08-02T04:26:28.153Z,8.90
2022-08-02T04:28:58.464Z,11.73
2022-08-02T04:31:27.715Z,10.27
2022-08-02T04:33:56.568Z,14.10
2022-08-02T04:36:31.461Z,9.85
2022-08-02T04:39:00.393Z,11.07
2022-08-02T04:41:43.655Z,10.52
2022-08-02T04:44:13.324Z,10.48
2022-08-02T04:46:42.814Z,8.88
2022-08-02T04:49:11.401Z,12.18
2022-08-02T04:51:44.587Z,7.68
2022-08-02T04:54:13.433Z,8.43
2022-08-02T04:56:42.214Z,10.65
2022-08-02T04:59:10.437Z,16.95
2022-08-02T05:01:39.363Z,9.35
2022-08-02T05:04:07.534Z,15.82
2022-08-02T05:06:35.638Z,7.05
2022-08-02T05:09:05.249Z,10.63
2022-08-02T05:11:36.787Z,7.25
2022-08-02T05:14:06.917Z,8.80
2022-08-02T05:16:35.090Z,7.75
2022-08-02T05:19:04.781Z,11.15
2022-08-02T05:21:32.992Z,7.85
2022-08-02T05:24:01.033Z,8.98
2022-08-02T05:26:30.514Z,6.30
2022-08-02T05:28:58.692Z,8.00
2022-08-02T05:31:26.839Z,8.43
2022-08-02T05:33:54.905Z,7.20
2022-08-02T05:36:23.193Z,5.88
2022-08-02T05:38:52.838Z,7.57
2022-08-02T05:41:27.918Z,8.45
2022-08-02T05:43:57.972Z,8.65
2022-08-02T05:46:26.073Z,2.60
2022-08-02T05:48:54.177Z,4.50
2022-08-02T05:51:30.921Z,3.42
2022-08-02T05:54:12.169Z,3.50
2022-08-02T05:56:49.211Z,3.45
2022-08-02T05:59:33.772Z,2.47
2022-08-02T06:02:09.930Z,9.90
2022-08-02T06:04:57.653Z,5.47
2022-08-02T06:07:26.454Z,3.05
2022-08-02T06:09:55.231Z,5.20
2022-08-02T06:12:30.222Z,4.70
2022-08-02T06:15:00.657Z,5.68
2022-08-02T06:17:29.354Z,2.65
2022-08-02T06:19:59.227Z,6.45
2022-08-02T06:22:35.080Z,6.32
2022-08-02T06:25:06.600Z,3.65
2022-08-02T06:27:55.313Z,2.53
2022-08-02T06:30:25.172Z,3.83
2022-08-02T06:32:53.910Z,3.33
2022-08-02T06:35:22.391Z,6.20
2022-08-02T06:37:58.785Z,4.65
2022-08-02T06:43:14.352Z,5.05
2022-08-02T06:45:43.941Z,5.93
2022-08-02T06:48:12.140Z,6.75
2022-08-02T06:50:42.202Z,3.85
2022-08-02T06:53:12.167Z,3.00
2022-08-02T06:55:43.831Z,5.03
2022-08-02T06:58:13.633Z,5.68
2022-08-02T07:00:43.768Z,2.95
2022-08-02T07:03:12.577Z,2.15
2022-08-02T07:05:43.606Z,2.25
2022-08-02T07:08:11.874Z,3.20
2022-08-02T07:10:39.982Z,2.92
2022-08-02T07:13:08.092Z,4.15
2022-08-02T07:15:36.707Z,9.27
2022-08-02T07:18:07.527Z,5.15
2022-08-02T07:20:35.688Z,2.33
2022-08-02T07:23:03.967Z,2.60
2022-08-02T07:26:03.121Z,4.95
2022-08-02T07:28:24.307Z,3.08
2022-08-02T07:30:53.145Z,5.15
2022-08-02T07:33:37.607Z,3.78
2022-08-02T07:36:09.744Z,4.65
2022-08-02T07:38:46.052Z,4.05
2022-08-02T07:41:15.011Z,3.72
2022-08-02T07:43:43.197Z,2.30
2022-08-02T07:46:11.266Z,2.13
2022-08-02T07:48:40.819Z,4.32
2022-08-02T07:51:12.001Z,3.10
2022-08-02T07:53:50.811Z,4.03
2022-08-02T07:56:30.165Z,3.38
2022-08-02T07:58:58.284Z,1.88
2022-08-02T08:01:26.452Z,7.68
2022-08-02T08:03:56.026Z,8.52
2022-08-02T08:06:29.013Z,27.50
2022-08-02T08:08:57.830Z,14.07
2022-08-02T08:11:28.493Z,7.25
2022-08-02T08:13:56.690Z,6.32
2022-08-02T08:16:26.423Z,24.58
2022-08-02T08:18:56.326Z,21.73
2022-08-02T08:21:24.542Z,8.48
2022-08-02T08:23:52.638Z,14.30
2022-08-02T08:26:21.237Z,17.52
2022-08-02T08:28:49.659Z,26.52
2022-08-02T08:31:17.777Z,12.85
2022-08-02T08:33:46.894Z,11.98
2022-08-02T08:36:16.731Z,19.67
2022-08-02T08:38:44.993Z,7.65
2022-08-02T08:41:13.204Z,8.27
2022-08-02T08:43:41.287Z,5.15
2022-08-02T08:46:12.038Z,3.97
2022-08-02T08:48:52.845Z,7.25
2022-08-02T08:51:25.935Z,3.80
2022-08-02T08:54:00.208Z,4.28
2022-08-02T08:56:34.393Z,2.63
2022-08-02T08:59:02.663Z,6.07
2022-08-02T09:01:49.684Z,3.60
2022-08-02T09:04:19.406Z,8.32
2022-08-02T09:06:49.535Z,2.60
2022-08-02T09:09:17.745Z,4.70
2022-08-02T09:11:46.003Z,1.23
2022-08-02T09:14:29.267Z,4.65
2022-08-02T09:17:10.397Z,4.15
2022-08-02T09:19:38.543Z,2.15
2022-08-02T09:22:16.485Z,1.70
2022-08-02T09:24:49.452Z,3.00
2022-08-02T09:27:22.824Z,2.38
2022-08-02T09:30:12.685Z,3.70
2022-08-02T09:32:49.943Z,3.67
2022-08-02T09:36:05.082Z,1.45
2022-08-02T09:38:23.567Z,2.83
2022-08-02T09:40:54.481Z,4.75
2022-08-02T09:43:23.108Z,1.40
2022-08-02T09:45:51.228Z,1.33
2022-08-02T09:48:19.470Z,2.67
2022-08-02T09:50:47.899Z,2.08
2022-08-02T09:53:17.860Z,2.53
2022-08-02T09:55:57.291Z,1.58
2022-08-02T09:58:25.503Z,2.13
2022-08-02T10:00:56.627Z,1.52
2022-08-02T10:03:32.938Z,2.63
2022-08-02T10:06:04.735Z,1.83
2022-08-02T10:08:34.249Z,2.92
2022-08-02T10:11:04.348Z,0.52
2022-08-02T10:13:34.670Z,1.15
2022-08-02T10:16:04.779Z,1.30
2022-08-02T10:18:41.326Z,0.63
2022-08-02T10:21:16.516Z,1.02
2022-08-02T10:23:47.434Z,0.90
2022-08-02T10:26:21.489Z,3.20
2022-08-02T10:28:51.091Z,0.77
2022-08-02T10:31:26.620Z,2.88
2022-08-02T10:33:59.636Z,2.35
2022-08-02T10:36:32.766Z,1.77
2022-08-02T10:39:03.175Z,3.47
2022-08-02T10:41:51.373Z,0.75
2022-08-02T10:44:29.174Z,1.05
2022-08-02T10:47:25.096Z,0.95
2022-08-02T10:49:56.098Z,1.25
2022-08-02T10:52:25.996Z,2.35
2022-08-02T10:54:59.779Z,0.98
2022-08-02T10:57:33.232Z,1.15
2022-08-02T11:00:17.247Z,2.45
2022-08-02T11:02:53.584Z,1.25
2022-08-02T11:05:42.315Z,1.85
2022-08-02T11:08:21.570Z,2.58
2022-08-02T11:10:50.421Z,1.70
2022-08-02T11:13:20.552Z,1.77
2022-08-02T11:15:57.100Z,3.67
2022-08-02T11:19:06.759Z,1.65
2022-08-02T11:21:37.747Z,1.42
2022-08-02T11:24:29.675Z,2.60
2022-08-02T11:26:59.716Z,1.00
2022-08-02T11:29:39.318Z,0.50
2022-08-02T11:32:09.963Z,2.17
2022-08-02T11:34:40.241Z,1.75
2022-08-02T11:37:11.749Z,0.60
2022-08-02T11:39:40.352Z,0.85
2022-08-02T11:42:09.299Z,3.58
2022-08-02T11:44:46.597Z,0.68
2022-08-02T11:47:15.214Z,1.02
2022-08-02T11:49:44.717Z,2.15
2022-08-02T11:52:13.257Z,20.67
2022-08-02T11:54:44.241Z,3.55
2022-08-02T11:57:20.797Z,1.05
2022-08-02T11:59:53.786Z,1.92
2022-08-02T12:02:28.833Z,1.60
2022-08-02T12:05:02.101Z,3.25
2022-08-02T12:07:34.566Z,1.00
2022-08-02T12:10:07.852Z,1.60
2022-08-02T12:12:48.852Z,1.42
2022-08-02T12:15:34.536Z,0.80
2022-08-02T12:18:20.397Z,10.47
2022-08-02T12:20:48.785Z,0.73
2022-08-02T12:23:16.966Z,3.30
2022-08-02T12:25:45.365Z,1.58
2022-08-02T12:28:18.773Z,1.08
2022-08-02T12:31:00.939Z,2.58
2022-08-02T12:33:47.820Z,2.75
2022-08-02T12:36:21.368Z,1.48
2022-08-02T12:38:54.967Z,1.42
2022-08-02T12:41:30.212Z,4.97
2022-08-02T12:44:00.940Z,1.40
2022-08-02T12:46:31.895Z,2.97
2022-08-02T12:49:18.679Z,3.53
2022-08-02T12:51:57.705Z,5.65
2022-08-02T12:54:32.618Z,3.47
2022-08-02T12:57:12.494Z,1.85
2022-08-02T12:59:44.486Z,2.20
2022-08-02T13:02:16.848Z,1.20
2022-08-02T13:04:49.793Z,1.70
2022-08-02T13:07:19.138Z,1.00
2022-08-02T13:09:48.421Z,3.35
2022-08-02T13:12:17.576Z,2.08
2022-08-02T13:14:45.972Z,0.70
2022-08-02T13:17:15.465Z,1.70
2022-08-02T13:19:43.672Z,1.85
2022-08-02T13:22:11.937Z,1.55
2022-08-02T13:24:55.586Z,2.47
2022-08-02T13:27:26.236Z,2.63
2022-08-02T13:29:56.768Z,2.65
2022-08-02T13:32:27.959Z,1.17
2022-08-02T13:34:57.720Z,2.05
2022-08-02T13:37:26.548Z,0.73
2022-08-02T13:40:20.164Z,4.50
2022-08-02T13:42:43.227Z,2.10
2022-08-02T13:45:14.471Z,4.78
2022-08-02T13:48:04.826Z,1.95
2022-08-02T13:50:33.994Z,1.27
2022-08-02T13:53:02.107Z,0.80
2022-08-02T13:55:30.623Z,5.93
2022-08-02T13:57:59.221Z,0.73
2022-08-02T14:00:35.490Z,2.88
2022-08-02T14:03:07.278Z,2.22
2022-08-02T14:05:47.589Z,0.75
2022-08-02T14:08:19.142Z,1.85
2022-08-02T14:10:48.910Z,3.28
2022-08-02T14:13:17.671Z,4.47
2022-08-02T14:15:46.357Z,0.77
2022-08-02T14:18:16.183Z,6.35
2022-08-02T14:20:45.184Z,1.10
2022-08-02T14:23:13.688Z,3.08
2022-08-02T14:25:41.984Z,0.80
2022-08-02T14:28:10.297Z,1.90
2022-08-02T14:30:38.737Z,0.80
2022-08-02T14:33:07.058Z,1.52
2022-08-02T14:35:36.733Z,1.20
2022-08-02T14:38:05.105Z,0.63
2022-08-02T14:40:33.500Z,2.00
2022-08-02T14:43:02.030Z,4.45
2022-08-02T14:45:36.963Z,0.73
2022-08-02T14:48:11.700Z,0.70
2022-08-02T14:50:41.367Z,2.28
2022-08-02T14:53:12.549Z,0.52
2022-08-02T14:55:42.798Z,5.00
2022-08-02T14:58:11.389Z,0.30
2022-08-02T15:00:41.502Z,1.45
2022-08-02T15:03:10.761Z,0.95
2022-08-02T15:05:40.798Z,0.95
2022-08-02T15:08:11.293Z,2.00
2022-08-02T15:10:45.432Z,1.75
2022-08-02T15:13:13.645Z,0.50
2022-08-02T15:15:43.568Z,0.82
2022-08-02T15:18:13.612Z,0.52
2022-08-02T15:20:46.218Z,2.20
2022-08-02T15:23:37.236Z,1.00
2022-08-02T15:26:06.597Z,0.47
2022-08-02T15:28:35.408Z,0.88
2022-08-02T15:31:03.887Z,1.67
2022-08-02T15:33:32.469Z,1.70
2022-08-02T15:36:02.150Z,0.57
2022-08-02T15:38:30.374Z,0.88
2022-08-02T15:40:58.480Z,0.70
2022-08-02T15:43:27.186Z,2.03
2022-08-02T15:45:55.882Z,0.45
2022-08-02T15:48:24.174Z,1.58
2022-08-02T15:50:52.331Z,1.05
2022-08-02T15:53:21.907Z,1.52
2022-08-02T15:56:04.192Z,0.93
2022-08-02T15:58:44.292Z,3.90
2022-08-02T16:01:13.211Z,0.88
2022-08-02T16:03:41.392Z,2.05
2022-08-02T16:06:09.569Z,0.98
2022-08-02T16:08:39.084Z,1.42
2022-08-02T16:11:19.871Z,2.25
2022-08-02T16:13:53.082Z,1.73
2022-08-02T16:16:22.527Z,1.13
2022-08-02T16:18:53.175Z,2.40
2022-08-02T16:21:22.767Z,3.92
2022-08-02T16:24:01.790Z,0.63
2022-08-02T16:26:34.030Z,1.75
2022-08-02T16:29:05.025Z,0.73
2022-08-02T16:31:37.507Z,1.30
2022-08-02T16:34:10.273Z,2.55
2022-08-02T16:36:38.725Z,1.23
2022-08-02T16:39:08.357Z,1.45
2022-08-02T16:41:52.107Z,0.60
2022-08-02T16:44:26.761Z,0.55
2022-08-02T16:47:00.947Z,3.38
2022-08-02T16:50:07.507Z,0.98
2022-08-02T16:52:19.836Z,2.97
2022-08-02T16:54:50.205Z,0.73
2022-08-02T16:57:19.811Z,1.30
2022-08-02T16:59:58.305Z,0.50
2022-08-02T17:02:27.997Z,4.05
2022-08-02T17:04:56.936Z,0.40
2022-08-02T17:08:08.466Z,6.30
2022-08-02T17:10:14.948Z,0.95
2022-08-02T17:12:51.403Z,1.23
2022-08-02T17:16:01.587Z,0.57
2022-08-02T17:18:08.993Z,1.13
2022-08-02T17:20:37.598Z,0.50
2022-08-02T17:23:05.744Z,1.80
2022-08-02T17:25:41.837Z,3.90
2022-08-02T17:28:10.884Z,2.40
2022-08-02T17:30:39.728Z,2.58
2022-08-02T17:33:07.922Z,0.80
2022-08-02T17:35:43.459Z,0.68
2022-08-02T17:38:26.208Z,0.35
2022-08-02T17:40:57.245Z,0.73
2022-08-02T17:43:29.543Z,1.75
2022-08-02T17:46:00.766Z,1.85
2022-08-02T17:48:55.114Z,0.98
2022-08-02T17:52:15.440Z,1.90
2022-08-02T17:54:13.396Z,1.60
2022-08-02T17:56:43.415Z,0.70
2022-08-02T17:59:20.212Z,2.78
2022-08-02T18:01:53.087Z,0.85
2022-08-02T18:04:27.714Z,1.60
2022-08-02T18:06:58.515Z,0.75
2022-08-02T18:09:27.414Z,0.40
2022-08-02T18:11:58.008Z,2.75
2022-08-02T18:14:26.847Z,4.88
2022-08-02T18:16:55.515Z,0.57
2022-08-02T18:19:23.649Z,1.17
2022-08-02T18:22:10.719Z,0.45
2022-08-02T18:24:40.650Z,2.38
2022-08-02T18:27:10.451Z,2.50
2022-08-02T18:29:38.878Z,0.45
2022-08-02T18:32:11.761Z,2.95
2022-08-02T18:34:40.803Z,0.57
2022-08-02T18:37:15.902Z,2.50
2022-08-02T18:39:51.316Z,1.95
2022-08-02T18:42:21.344Z,1.05
2022-08-02T18:44:49.566Z,0.88
2022-08-02T18:47:17.805Z,1.27
2022-08-02T18:49:50.396Z,5.65
2022-08-02T18:52:30.981Z,0.98
2022-08-02T18:54:59.520Z,2.45
2022-08-02T18:58:17.625Z,0.73
2022-08-02T19:00:20.616Z,2.15
2022-08-02T19:02:53.943Z,2.97
2022-08-02T19:05:24.067Z,1.17
2022-08-02T19:08:12.808Z,0.70
2022-08-02T19:10:49.197Z,4.22
2022-08-02T19:13:19.669Z,1.83
2022-08-02T19:15:48.570Z,1.25
2022-08-02T19:18:16.841Z,9.07
2022-08-02T19:20:48.032Z,1.92
2022-08-02T19:23:17.069Z,3.63
2022-08-02T19:25:50.473Z,2.30
2022-08-02T19:28:26.197Z,3.13
2022-08-02T19:30:54.986Z,8.88
2022-08-02T19:33:54.455Z,4.88
2022-08-02T19:36:13.948Z,0.63
2022-08-02T19:38:49.043Z,2.63
2022-08-02T19:41:17.865Z,0.60
2022-08-02T19:44:26.415Z,3.45
2022-08-02T19:46:41.522Z,3.17
2022-08-02T19:49:16.424Z,3.20
2022-08-02T19:51:55.539Z,1.95
2022-08-02T19:54:54.651Z,4.10
2022-08-02T19:57:17.033Z,1.05
2022-08-02T19:59:49.609Z,1.25
2022-08-02T20:02:18.738Z,4.45
2022-08-02T20:04:50.206Z,3.40
2022-08-02T20:07:48.257Z,1.50
2022-08-02T20:10:11.560Z,1.52
2022-08-02T20:12:40.246Z,3.20
2022-08-02T20:15:15.045Z,3.47
2022-08-02T20:17:47.244Z,1.33
2022-08-02T20:20:18.209Z,1.42
2022-08-02T20:23:33.753Z,3.58
2022-08-02T20:25:55.119Z,3.80
2022-08-02T20:28:24.209Z,1.67
2022-08-02T20:30:56.493Z,2.72
2022-08-02T20:33:24.682Z,0.90
2022-08-02T20:35:54.922Z,4.68
2022-08-02T20:38:24.771Z,0.98
2022-08-02T20:40:56.152Z,1.65
2022-08-02T20:43:31.444Z,1.80
2022-08-02T20:46:05.283Z,2.55
2022-08-02T20:48:33.421Z,2.70
2022-08-02T20:51:03.173Z,1.02
2022-08-02T20:53:54.767Z,0.73
2022-08-02T20:56:23.455Z,2.85
2022-08-02T20:58:52.244Z,3.00
2022-08-02T21:01:22.566Z,4.18
2022-08-02T21:03:58.474Z,4.32
2022-08-02T21:06:27.925Z,2.90
2022-08-02T21:08:56.657Z,3.90
2022-08-02T21:11:33.669Z,1.05
2022-08-02T21:14:08.794Z,1.25
2022-08-02T21:16:38.695Z,5.22
2022-08-02T21:19:08.068Z,1.90
2022-08-02T21:21:38.258Z,4.32
2022-08-02T21:24:07.123Z,1.85
2022-08-02T21:26:40.585Z,1.40
2022-08-02T21:29:10.096Z,3.22
2022-08-02T21:31:43.434Z,3.60
2022-08-02T21:34:22.475Z,1.50
2022-08-02T21:36:55.847Z,1.00
2022-08-02T21:39:24.525Z,1.00
2022-08-02T21:41:53.103Z,0.88
2022-08-02T21:44:23.880Z,1.92
2022-08-02T21:46:55.584Z,5.35
2022-08-02T21:49:40.566Z,2.00
2022-08-02T21:52:14.863Z,4.15
2022-08-02T21:54:47.366Z,5.35
2022-08-02T21:57:16.815Z,1.38
2022-08-02T21:59:46.721Z,1.58
2022-08-02T22:02:18.681Z,3.13
2022-08-02T22:04:48.288Z,2.72
2022-08-02T22:07:23.867Z,1.33
2022-08-02T22:09:52.869Z,3.08
2022-08-02T22:12:25.994Z,1.63
2022-08-02T22:14:56.600Z,3.05
2022-08-02T22:17:49.817Z,4.00
2022-08-02T22:20:20.357Z,3.42
2022-08-02T22:22:50.214Z,3.13
2022-08-02T22:25:26.918Z,11.70
2022-08-02T22:28:38.160Z,1.92
2022-08-02T22:30:53.733Z,2.60
2022-08-02T22:33:47.376Z,3.75
2022-08-02T22:36:29.620Z,2.00
2022-08-02T22:38:57.993Z,5.53
2022-08-02T22:42:01.098Z,3.63
2022-08-02T22:44:14.577Z,4.32
2022-08-02T22:46:43.142Z,1.92
2022-08-02T22:49:17.494Z,2.05
2022-08-02T22:52:00.760Z,1.48
2022-08-02T22:54:30.426Z,1.75
2022-08-02T22:57:00.213Z,2.00
2022-08-02T22:59:36.426Z,1.75
2022-08-02T23:02:09.488Z,2.65
2022-08-02T23:04:39.413Z,3.05
2022-08-02T23:07:07.824Z,2.08
2022-08-02T23:09:35.995Z,2.97
2022-08-02T23:12:04.470Z,2.05
2022-08-02T23:14:32.966Z,2.28
2022-08-02T23:17:18.879Z,1.67
2022-08-02T23:19:54.294Z,1.77
2022-08-02T23:22:30.112Z,2.38
2022-08-02T23:25:02.285Z,3.58
2022-08-02T23:27:31.813Z,2.10
2022-08-02T23:30:00.946Z,1.48
2022-08-02T23:32:29.897Z,1.58
2022-08-02T23:34:59.900Z,5.10
2022-08-02T23:37:28.049Z,1.75
2022-08-02T23:39:56.223Z,2.53
2022-08-02T23:42:25.327Z,1.42
2022-08-02T23:44:53.801Z,8.60
2022-08-02T23:47:22.708Z,2.42
2022-08-02T23:49:51.329Z,2.90
2022-08-02T23:52:21.145Z,1.83
2022-08-02T23:54:50.535Z,5.47
2022-08-02T23:57:20.805Z,7.75
2022-08-02T23:59:52.618Z,1.63
